Terminal Aerodrome Forecast
Issued by NWS Cleveland, OH

Home | Current Version | Previous Version | Text Only | Print | Product List | Glossary Off
Versions: 1 2 3 4 5 6 7 8 9 10 11 12 13 14 15 16 17 18 19 20 21 22 23 24 25

000
FTUS41 KCLE 280000 AAA
TAFERI
TAF AMD
KERI 280027Z 2800/2824 36006KT 6SM -SHRA VCTS OVC035CB
      TEMPO 2800/2804 VRB25G35KT 1 1/2SM -TSRA OVC012CB
     FM280400 34006KT 4SM -SHRA BR SCT012 OVC025
     FM281000 34010KT 3SM BR OVC012
     FM281600 34014G22KT P6SM OVC015=

USA.gov is the U.S. government's official web portal to all federal, state and local government web resources and services.